createdAt,value
2023-04-08T00:00:28.745Z,0.08
2023-04-08T00:01:45.768Z,0
2023-04-08T00:03:02.847Z,0.19
2023-04-08T00:04:19.833Z,0.26
2023-04-08T00:05:36.724Z,0.06
2023-04-08T00:06:53.688Z,0
2023-04-08T00:08:10.772Z,0.34
2023-04-08T00:09:27.698Z,0.17
2023-04-08T00:10:44.675Z,0.24
2023-04-08T00:12:01.757Z,0.25
2023-04-08T00:13:19.331Z,0.37
2023-04-08T00:14:36.692Z,0.43
2023-04-08T00:15:53.748Z,0.18
2023-04-08T00:17:10.907Z,0.39
2023-04-08T00:18:27.755Z,0.29
2023-04-08T00:19:44.716Z,0.19
2023-04-08T00:21:01.696Z,0.12
2023-04-08T00:22:19.104Z,0.25
2023-04-08T00:23:36.770Z,0.15
2023-04-08T00:24:53.727Z,0.18
2023-04-08T00:26:10.743Z,0.2
2023-04-08T00:27:27.751Z,0.09
2023-04-08T00:28:44.746Z,0.32
2023-04-08T00:30:01.799Z,0
2023-04-08T00:31:18.821Z,0
2023-04-08T00:32:35.777Z,0.15
2023-04-08T00:33:52.742Z,0.11
2023-04-08T00:35:09.781Z,0.22
2023-04-08T00:36:26.731Z,0.15
2023-04-08T00:37:43.733Z,0
2023-04-08T00:39:00.723Z,0
2023-04-08T00:40:17.810Z,0
2023-04-08T00:41:34.726Z,0
2023-04-08T00:42:51.766Z,0.13
2023-04-08T00:44:08.718Z,0.27
2023-04-08T00:45:25.753Z,0.08
2023-04-08T00:46:42.817Z,0.15
2023-04-08T00:47:59.833Z,0.21
2023-04-08T00:49:16.883Z,0.22
2023-04-08T00:50:34.386Z,0.08
2023-04-08T00:51:51.189Z,0.29
2023-04-08T00:53:09.009Z,0.13
2023-04-08T00:54:25.858Z,0.62
2023-04-08T00:55:45.210Z,0.36
2023-04-08T00:57:02.745Z,0.06
2023-04-08T00:58:19.826Z,0.24
2023-04-08T00:59:36.764Z,0.22
2023-04-08T01:00:53.764Z,0.22
2023-04-08T01:02:10.801Z,0.3
2023-04-08T01:03:27.953Z,0.37
2023-04-08T01:04:44.815Z,0.32
2023-04-08T01:06:01.790Z,0.35
2023-04-08T01:07:18.917Z,0.6
2023-04-08T01:08:35.834Z,0.53
2023-04-08T01:09:52.806Z,0.33
2023-04-08T01:11:09.783Z,0.3
2023-04-08T01:12:26.900Z,0.93
2023-04-08T01:13:43.801Z,0.89
2023-04-08T01:15:00.794Z,1.64
2023-04-08T01:16:17.876Z,3.93
2023-04-08T01:17:34.842Z,1.43
2023-04-08T01:18:51.940Z,0.84
2023-04-08T01:20:08.826Z,1.6
2023-04-08T01:21:25.936Z,1.28
2023-04-08T01:22:42.774Z,1.67
2023-04-08T01:24:00.156Z,1.46
2023-04-08T01:25:16.844Z,0.77
2023-04-08T01:26:33.821Z,1.04
2023-04-08T01:27:50.903Z,1.57
2023-04-08T01:29:07.803Z,1.09
2023-04-08T01:30:24.816Z,1.15
2023-04-08T01:31:41.922Z,1.75
2023-04-08T01:32:58.897Z,1.36
2023-04-08T01:34:15.826Z,1.74
2023-04-08T01:35:32.848Z,1.94
2023-04-08T01:36:49.832Z,0.95
2023-04-08T01:38:06.825Z,1.01
2023-04-08T01:39:23.846Z,0.97
2023-04-08T01:40:40.810Z,0.6
2023-04-08T01:41:57.824Z,0.71
2023-04-08T01:43:14.843Z,0.27
2023-04-08T01:44:32.124Z,0.91
2023-04-08T01:45:49.298Z,0.59
2023-04-08T01:47:05.848Z,0.78
2023-04-08T01:48:22.845Z,0.69
2023-04-08T01:49:39.839Z,0.65
2023-04-08T01:50:56.863Z,0.57
2023-04-08T01:52:13.813Z,0.51
2023-04-08T01:53:30.844Z,1.06
2023-04-08T01:54:47.896Z,0.89
2023-04-08T01:56:04.835Z,0.63
2023-04-08T01:57:22.179Z,0.66
2023-04-08T01:58:38.856Z,1.29
2023-04-08T01:59:56.126Z,0.85
2023-04-08T02:01:12.848Z,1.23
2023-04-08T02:02:29.929Z,1.24
2023-04-08T02:03:48.140Z,0.82
2023-04-08T02:05:05.863Z,0.5
2023-04-08T02:06:22.859Z,0.35
2023-04-08T02:07:39.885Z,0.68
2023-04-08T02:08:56.875Z,0.64
2023-04-08T02:10:13.881Z,0.65
2023-04-08T02:11:30.864Z,0.48
2023-04-08T02:12:47.900Z,0.7
2023-04-08T02:14:04.863Z,0.46
2023-04-08T02:15:21.908Z,0.37
2023-04-08T02:16:38.995Z,0.47
2023-04-08T02:17:56.495Z,0.37
2023-04-08T02:19:13.918Z,0.42
2023-04-08T02:20:30.869Z,0.54
2023-04-08T02:21:47.873Z,0.76
2023-04-08T02:23:04.875Z,0.61
2023-04-08T02:24:21.932Z,0.25
2023-04-08T02:25:38.885Z,0.2
2023-04-08T02:26:55.901Z,0.12
2023-04-08T02:28:12.919Z,0.07
2023-04-08T02:29:29.935Z,0.42
2023-04-08T02:30:46.895Z,0.38
2023-04-08T02:32:03.906Z,0.62
2023-04-08T02:33:20.904Z,0.48
2023-04-08T02:34:37.911Z,0.71
2023-04-08T02:35:55.137Z,0.29
2023-04-08T02:37:11.922Z,0.46
2023-04-08T02:38:28.892Z,0.38
2023-04-08T02:39:46.042Z,0.37
2023-04-08T02:41:02.929Z,0.3
2023-04-08T02:42:19.929Z,0.39
2023-04-08T02:43:36.891Z,0.51
2023-04-08T02:44:54.404Z,0.67
2023-04-08T02:46:11.981Z,0.61
2023-04-08T02:47:28.910Z,0.67
2023-04-08T02:48:45.894Z,0.69
2023-04-08T02:50:03.110Z,0.94
2023-04-08T02:51:19.895Z,1.06
2023-04-08T02:52:36.935Z,1.33
2023-04-08T02:53:53.917Z,1.03
2023-04-08T02:55:10.989Z,1.26
2023-04-08T02:56:27.915Z,1.02
2023-04-08T02:57:44.939Z,1.3
2023-04-08T02:59:01.912Z,1.31
2023-04-08T03:00:19.017Z,0.73
2023-04-08T03:01:35.970Z,1.22
2023-04-08T03:02:53.178Z,1
2023-04-08T03:04:09.928Z,0.85
2023-04-08T03:05:27.003Z,0.96
2023-04-08T03:06:43.935Z,1.06
2023-04-08T03:08:00.994Z,1.18
2023-04-08T03:09:17.923Z,0.67
2023-04-08T03:10:34.991Z,0.99
2023-04-08T03:11:51.912Z,0.57
2023-04-08T03:13:08.934Z,0.76
2023-04-08T03:14:26.243Z,1.27
2023-04-08T03:15:43.013Z,0.64
2023-04-08T03:16:59.977Z,0.82
2023-04-08T03:18:16.934Z,1.17
2023-04-08T03:19:33.941Z,0.91
2023-04-08T03:20:50.972Z,1.34
2023-04-08T03:22:07.943Z,0.59
2023-04-08T03:23:24.976Z,0.36
2023-04-08T03:24:42.201Z,1.08
2023-04-08T03:25:58.960Z,0.86
2023-04-08T03:27:16.007Z,0.82
2023-04-08T03:28:32.985Z,1.19
2023-04-08T03:29:49.961Z,0.74
2023-04-08T03:31:06.964Z,1.46
2023-04-08T03:32:23.996Z,0.94
2023-04-08T03:33:40.981Z,1.11
2023-04-08T03:34:57.975Z,0.77
2023-04-08T03:36:14.990Z,0.47
2023-04-08T03:37:31.974Z,1
2023-04-08T03:38:49.164Z,0.68
2023-04-08T03:40:06.073Z,0.65
2023-04-08T03:41:22.996Z,0.62
2023-04-08T03:42:39.982Z,1.23
2023-04-08T03:43:56.997Z,0.47
2023-04-08T03:45:14.004Z,0.88
2023-04-08T03:46:31.624Z,0.73
2023-04-08T03:47:49.035Z,0.6
2023-04-08T03:49:05.995Z,0.54
2023-04-08T03:50:22.962Z,1.05
2023-04-08T03:51:40.018Z,0.75
2023-04-08T03:52:57.092Z,0.8
2023-04-08T03:54:14.016Z,0.75
2023-04-08T03:55:31.061Z,0.57
2023-04-08T03:56:48.004Z,1.11
2023-04-08T03:58:05.038Z,0.43
2023-04-08T03:59:22.002Z,0.49
2023-04-08T04:00:39.112Z,0.72
2023-04-08T04:01:56.506Z,0.59
2023-04-08T04:03:14.120Z,0.3
2023-04-08T04:04:31.030Z,0.73
2023-04-08T04:05:48.049Z,0.67
2023-04-08T04:07:05.038Z,0.44
2023-04-08T04:08:22.084Z,0.37
2023-04-08T04:09:39.038Z,0.52
2023-04-08T04:10:56.137Z,0.16
2023-04-08T04:12:13.033Z,0.59
2023-04-08T04:13:30.161Z,0.41
2023-04-08T04:14:47.019Z,0.46
2023-04-08T04:16:04.233Z,0.47
2023-04-08T04:17:21.040Z,0.6
2023-04-08T04:18:38.093Z,0.66
2023-04-08T04:19:55.038Z,0.85
2023-04-08T04:21:12.086Z,1.01
2023-04-08T04:22:29.034Z,0.83
2023-04-08T04:23:46.033Z,0.76
2023-04-08T04:25:03.131Z,1.14
2023-04-08T04:26:20.037Z,1.09
2023-04-08T04:27:37.078Z,0.73
2023-04-08T04:28:54.067Z,0.29
2023-04-08T04:30:11.051Z,0.63
2023-04-08T04:31:28.142Z,0.58
2023-04-08T04:32:45.120Z,0.74
2023-04-08T04:34:02.525Z,0.62
2023-04-08T04:35:19.084Z,0.85
2023-04-08T04:36:36.043Z,0.95
2023-04-08T04:37:53.123Z,1.09
2023-04-08T04:39:10.088Z,0.84
2023-04-08T04:40:27.157Z,0.94
2023-04-08T04:41:44.068Z,1.48
2023-04-08T04:43:01.176Z,1.25
2023-04-08T04:44:18.107Z,0.49
2023-04-08T04:45:35.068Z,0.23
2023-04-08T04:46:52.145Z,0.37
2023-04-08T04:48:09.061Z,0.79
2023-04-08T04:49:26.045Z,0.4
2023-04-08T04:50:43.118Z,0.41
2023-04-08T04:52:00.138Z,0.74
2023-04-08T04:53:17.234Z,0.46
2023-04-08T04:54:34.085Z,0.46
2023-04-08T04:55:51.103Z,0.25
2023-04-08T04:57:08.112Z,0.56
2023-04-08T04:58:25.075Z,0.24
2023-04-08T04:59:42.131Z,0.61
2023-04-08T05:00:59.103Z,0.68
2023-04-08T05:02:16.164Z,0.94
2023-04-08T05:03:33.224Z,0.98
2023-04-08T05:04:50.124Z,1.12
2023-04-08T05:06:07.136Z,1.33
2023-04-08T05:07:24.223Z,1.56
2023-04-08T05:08:41.179Z,1.27
2023-04-08T05:09:59.144Z,1.23
2023-04-08T05:11:16.146Z,0.81
2023-04-08T05:12:33.196Z,0.8
2023-04-08T05:13:50.124Z,0.79
2023-04-08T05:15:07.125Z,0.27
2023-04-08T05:16:24.131Z,0.45
2023-04-08T05:17:41.209Z,0.26
2023-04-08T05:18:58.116Z,0.33
2023-04-08T05:20:16.448Z,0.59
2023-04-08T05:21:32.152Z,0.46
2023-04-08T05:22:49.157Z,0.15
2023-04-08T05:24:06.158Z,0.4
2023-04-08T05:25:23.169Z,0.47
2023-04-08T05:26:40.148Z,0.56
2023-04-08T05:27:57.198Z,0.56
2023-04-08T05:29:14.156Z,0.71
2023-04-08T05:30:31.142Z,0.56
2023-04-08T05:31:48.359Z,0.49
2023-04-08T05:33:05.165Z,0.5
2023-04-08T05:34:22.151Z,0.81
2023-04-08T05:35:39.200Z,0.58
2023-04-08T05:36:56.154Z,0.67
2023-04-08T05:38:13.495Z,0.83
2023-04-08T05:39:30.242Z,0.44
2023-04-08T05:40:47.197Z,0.6
2023-04-08T05:42:04.183Z,0.99
2023-04-08T05:43:21.234Z,0.57
2023-04-08T05:44:38.210Z,0.59
2023-04-08T05:45:55.178Z,0.35
2023-04-08T05:47:12.271Z,0.51
2023-04-08T05:48:29.168Z,0.64
2023-04-08T05:49:47.360Z,0.68
2023-04-08T05:51:04.212Z,0.65
2023-04-08T05:52:21.161Z,0.41
2023-04-08T05:53:38.221Z,0.54
2023-04-08T05:54:55.806Z,0.59
2023-04-08T05:56:13.185Z,0.41
2023-04-08T05:57:30.190Z,0.54
2023-04-08T05:58:47.229Z,0.7
2023-04-08T06:00:04.256Z,0.55
2023-04-08T06:01:21.177Z,0.68
2023-04-08T06:02:38.690Z,0.46
2023-04-08T06:03:55.349Z,0.51
2023-04-08T06:05:12.308Z,0.58
2023-04-08T06:06:29.210Z,0.6
2023-04-08T06:07:46.230Z,1.13
2023-04-08T06:09:03.192Z,0.9
2023-04-08T06:10:20.201Z,0.66
2023-04-08T06:11:37.186Z,0.89
2023-04-08T06:12:54.239Z,0.46
2023-04-08T06:14:11.172Z,0.88
2023-04-08T06:15:28.246Z,0.67
2023-04-08T06:16:45.339Z,1.19
2023-04-08T06:18:02.311Z,0.72
2023-04-08T06:19:19.440Z,0.83
2023-04-08T06:20:36.232Z,0.81
2023-04-08T06:21:53.213Z,1.01
2023-04-08T06:23:10.278Z,1.45
2023-04-08T06:24:27.289Z,1.96
2023-04-08T06:25:44.587Z,2.2
2023-04-08T06:27:01.220Z,0.64
2023-04-08T06:28:18.216Z,0.9
2023-04-08T06:29:35.200Z,1.07
2023-04-08T06:30:52.506Z,0.79
2023-04-08T06:32:09.268Z,0.86
2023-04-08T06:33:26.886Z,0.91
2023-04-08T06:34:44.226Z,1.14
2023-04-08T06:36:01.256Z,0.93
2023-04-08T06:37:18.250Z,1.15
2023-04-08T06:38:35.213Z,1.52
2023-04-08T06:39:52.238Z,1.19
2023-04-08T06:41:09.220Z,1.52
2023-04-08T06:42:26.306Z,0.37
2023-04-08T06:43:43.274Z,0.82
2023-04-08T06:45:00.252Z,1.21
2023-04-08T06:46:17.324Z,0.85
2023-04-08T06:47:34.545Z,0.68
2023-04-08T06:48:51.624Z,1.38
2023-04-08T06:50:08.223Z,0.97
2023-04-08T06:51:25.254Z,0.88
2023-04-08T06:52:42.611Z,0.6
2023-04-08T06:53:59.233Z,0.84
2023-04-08T06:55:16.260Z,0.87
2023-04-08T06:56:33.242Z,1.09
2023-04-08T06:57:50.275Z,1.07
2023-04-08T06:59:07.289Z,0.71
2023-04-08T07:00:24.356Z,0.8
2023-04-08T07:01:41.320Z,1.02
2023-04-08T07:02:58.495Z,0.86
2023-04-08T07:04:15.407Z,0.68
2023-04-08T07:05:32.285Z,0.76
2023-04-08T07:06:49.254Z,1.21
2023-04-08T07:08:06.320Z,1.2
2023-04-08T07:09:23.247Z,2.2
2023-04-08T07:10:40.279Z,0.66
2023-04-08T07:11:57.293Z,0.73
2023-04-08T07:13:14.694Z,0.81
2023-04-08T07:14:32.314Z,0.66
2023-04-08T07:15:49.312Z,0.85
2023-04-08T07:17:06.266Z,0.57
2023-04-08T07:18:23.338Z,0.87
2023-04-08T07:19:40.260Z,0.66
2023-04-08T07:20:57.343Z,1.19
2023-04-08T07:22:14.275Z,1.52
2023-04-08T07:23:31.329Z,2.52
2023-04-08T07:24:48.280Z,1.82
2023-04-08T07:26:05.358Z,1.49
2023-04-08T07:27:22.371Z,2.09
2023-04-08T07:28:39.303Z,1.72
2023-04-08T07:29:56.306Z,0.83
2023-04-08T07:31:13.341Z,0.8
2023-04-08T07:32:30.280Z,1.22
2023-04-08T07:33:47.381Z,0.83
2023-04-08T07:35:04.281Z,1.54
2023-04-08T07:36:21.435Z,0.78
2023-04-08T07:37:38.284Z,0.94
2023-04-08T07:38:55.285Z,0.6
2023-04-08T07:40:12.316Z,0.8
2023-04-08T07:41:29.324Z,0.82
2023-04-08T07:42:46.377Z,1.01
2023-04-08T07:44:06.522Z,0.38
2023-04-08T07:45:23.379Z,0.73
2023-04-08T07:46:40.348Z,0.64
2023-04-08T07:47:57.416Z,0.64
2023-04-08T07:49:14.391Z,0.68
2023-04-08T07:50:31.304Z,0.85
2023-04-08T07:51:48.318Z,0.42
2023-04-08T07:53:05.909Z,1.29
2023-04-08T07:54:22.489Z,0.76
2023-04-08T07:55:39.369Z,0.65
2023-04-08T07:56:56.333Z,0.91
2023-04-08T07:58:13.307Z,1.14
2023-04-08T07:59:30.717Z,1.74
2023-04-08T08:00:48.350Z,1.34
2023-04-08T08:02:05.393Z,0.91
2023-04-08T08:03:22.493Z,0.65
2023-04-08T08:04:40.245Z,0.63
2023-04-08T08:05:57.412Z,0.62
2023-04-08T08:07:14.315Z,1.03
2023-04-08T08:08:31.320Z,1.48
2023-04-08T08:09:48.396Z,1.48
2023-04-08T08:11:05.338Z,0.7
2023-04-08T08:12:22.522Z,0.46
2023-04-08T08:13:39.334Z,0.67
2023-04-08T08:14:56.387Z,0.99
2023-04-08T08:16:13.459Z,1.59
2023-04-08T08:17:30.408Z,1.16
2023-04-08T08:18:47.539Z,1.59
2023-04-08T08:20:04.397Z,0.88
2023-04-08T08:21:21.356Z,1.19
2023-04-08T08:22:47.090Z,1.35
2023-04-08T08:23:55.347Z,1.38
2023-04-08T08:25:12.573Z,1.42
2023-04-08T08:26:29.361Z,0.89
2023-04-08T08:27:46.599Z,0.88
2023-04-08T08:29:03.422Z,0.96
2023-04-08T08:30:20.396Z,1.05
2023-04-08T08:31:37.498Z,0.66
2023-04-08T08:32:54.679Z,1.97
2023-04-08T08:34:12.529Z,1.29
2023-04-08T08:35:29.420Z,1.01
2023-04-08T08:36:46.364Z,1.23
2023-04-08T08:38:03.444Z,1.31
2023-04-08T08:39:20.392Z,1.22
2023-04-08T08:40:37.370Z,0.69
2023-04-08T08:41:54.386Z,0.9
2023-04-08T08:43:11.524Z,0.78
2023-04-08T08:44:28.380Z,1.24
2023-04-08T08:45:45.383Z,0.68
2023-04-08T08:47:02.559Z,0.79
2023-04-08T08:48:19.415Z,0.88
2023-04-08T08:49:36.473Z,1.04
2023-04-08T08:50:53.419Z,0.68
2023-04-08T08:52:10.415Z,0.63
2023-04-08T08:53:27.386Z,0.87
2023-04-08T08:54:44.400Z,0.92
2023-04-08T08:56:17.017Z,0.56
2023-04-08T08:57:18.424Z,0.64
2023-04-08T08:58:35.413Z,0.6
2023-04-08T08:59:52.798Z,0.73
2023-04-08T09:01:09.412Z,0.99
2023-04-08T09:02:26.688Z,0.41
2023-04-08T09:03:43.649Z,0.81
2023-04-08T09:05:00.643Z,0.72
2023-04-08T09:06:17.435Z,0.73
2023-04-08T09:07:34.562Z,0.44
2023-04-08T09:08:51.441Z,0.68
2023-04-08T09:10:08.504Z,0.96
2023-04-08T09:11:26.255Z,0.59
2023-04-08T09:12:43.452Z,0.59
2023-04-08T09:14:00.451Z,0.43
2023-04-08T09:15:17.502Z,0.31
2023-04-08T09:16:34.484Z,0.12
2023-04-08T09:17:51.562Z,0.41
2023-04-08T09:19:08.473Z,0.39
2023-04-08T09:20:25.432Z,1.51
2023-04-08T09:21:42.500Z,1.75
2023-04-08T09:22:59.455Z,1.51
2023-04-08T09:24:17.814Z,1.17
2023-04-08T09:25:33.570Z,0.75
2023-04-08T09:26:50.431Z,1.35
2023-04-08T09:28:07.509Z,1.39
2023-04-08T09:29:26.145Z,0.85
2023-04-08T09:30:41.450Z,1.45
2023-04-08T09:31:58.530Z,1.01
2023-04-08T09:33:15.487Z,1.31
2023-04-08T09:34:32.570Z,0.73
2023-04-08T09:35:49.522Z,0.58
2023-04-08T09:37:06.454Z,0.63
2023-04-08T09:38:23.467Z,0.55
2023-04-08T09:39:40.444Z,0.53
2023-04-08T09:40:57.532Z,1.47
2023-04-08T09:42:14.457Z,1.06
2023-04-08T09:43:31.472Z,1.24
2023-04-08T09:44:48.482Z,0.71
2023-04-08T09:46:05.655Z,0.79
2023-04-08T09:47:22.565Z,0.7
2023-04-08T09:48:39.541Z,0.63
2023-04-08T09:49:56.521Z,1.08
2023-04-08T09:51:13.548Z,0.85
2023-04-08T09:52:30.474Z,0.98
2023-04-08T09:53:47.517Z,0.91
2023-04-08T09:55:04.559Z,1.1
2023-04-08T09:56:21.508Z,0.58
2023-04-08T09:57:38.498Z,0.68
2023-04-08T09:58:55.526Z,1.23
2023-04-08T10:00:12.554Z,2.57
2023-04-08T10:01:29.689Z,0.86
2023-04-08T10:02:46.598Z,0.87
2023-04-08T10:04:03.552Z,0.48
2023-04-08T10:05:20.515Z,0.87
2023-04-08T10:06:37.530Z,0.94
2023-04-08T10:07:54.475Z,0.78
2023-04-08T10:09:11.600Z,0.77
2023-04-08T10:10:28.525Z,0.46
2023-04-08T10:11:45.550Z,0.9
2023-04-08T10:13:02.499Z,0.86
2023-04-08T10:14:19.506Z,0.98
2023-04-08T10:15:36.521Z,0.59
2023-04-08T10:16:53.588Z,0.45
2023-04-08T10:18:10.505Z,0.5
2023-04-08T10:19:27.782Z,0.98
2023-04-08T10:20:44.519Z,0.71
2023-04-08T10:22:01.568Z,1.64
2023-04-08T10:23:18.658Z,1.88
2023-04-08T10:24:35.554Z,2.45
2023-04-08T10:25:52.526Z,1.84
2023-04-08T10:27:09.523Z,1.45
2023-04-08T10:28:26.538Z,1.06
2023-04-08T10:29:43.560Z,1.63
2023-04-08T10:31:00.672Z,2.15
2023-04-08T10:32:17.564Z,1.74
2023-04-08T10:33:34.807Z,2.02
2023-04-08T10:34:51.578Z,1.62
2023-04-08T10:36:08.552Z,0.66
2023-04-08T10:37:25.570Z,0.4
2023-04-08T10:38:42.691Z,1
2023-04-08T10:39:59.564Z,1.2
2023-04-08T10:41:16.537Z,1.54
2023-04-08T10:42:33.534Z,1.23
2023-04-08T10:43:50.846Z,0.64
2023-04-08T10:45:07.660Z,0.74
2023-04-08T10:46:24.556Z,0.51
2023-04-08T10:47:41.606Z,0.62
2023-04-08T10:48:58.562Z,0.46
2023-04-08T10:50:15.705Z,1.23
2023-04-08T10:51:33.800Z,0.72
2023-04-08T10:52:49.613Z,1.06
2023-04-08T10:54:06.588Z,1.13
2023-04-08T10:55:23.716Z,1.41
2023-04-08T10:56:40.580Z,0.52
2023-04-08T10:57:58.332Z,0.43
2023-04-08T10:59:14.565Z,0.56
2023-04-08T11:00:31.553Z,0.54
2023-04-08T11:01:48.682Z,0.91
2023-04-08T11:03:05.700Z,0.44
2023-04-08T11:04:22.643Z,0.51
2023-04-08T11:05:39.626Z,0.27
2023-04-08T11:06:56.684Z,0.35
2023-04-08T11:08:13.764Z,0.52
2023-04-08T11:09:30.585Z,0.28
2023-04-08T11:10:47.784Z,0.41
2023-04-08T11:12:04.593Z,0.48
2023-04-08T11:13:21.617Z,0.51
2023-04-08T11:14:39.236Z,0.8
2023-04-08T11:15:57.394Z,0.95
2023-04-08T11:17:15.029Z,0.57
2023-04-08T11:18:31.619Z,0.83
2023-04-08T11:19:48.620Z,0.77
2023-04-08T11:21:05.632Z,0.31
2023-04-08T11:22:22.591Z,0.35
2023-04-08T11:23:39.692Z,0.51
2023-04-08T11:24:56.646Z,1.45
2023-04-08T11:26:13.833Z,1.24
2023-04-08T11:27:31.721Z,0.75
2023-04-08T11:28:48.677Z,0.8
2023-04-08T11:30:05.649Z,0.64
2023-04-08T11:31:24.502Z,1.4
2023-04-08T11:32:41.079Z,1.54
2023-04-08T11:33:59.751Z,1.9
2023-04-08T11:35:18.227Z,1.17
2023-04-08T11:36:39.011Z,0.97
2023-04-08T11:37:57.248Z,0.91
2023-04-08T11:39:15.271Z,1.08
2023-04-08T11:40:34.269Z,0.55
2023-04-08T11:41:53.336Z,1.18
2023-04-08T11:43:12.699Z,0.68
2023-04-08T11:44:29.999Z,0.52
2023-04-08T11:45:49.180Z,0.16
2023-04-08T11:47:07.132Z,0.26
2023-04-08T11:48:25.087Z,1.36
2023-04-08T11:49:41.995Z,0.8
2023-04-08T11:50:59.406Z,1.67
2023-04-08T11:52:18.054Z,1.58
2023-04-08T11:53:35.974Z,1.1
2023-04-08T11:54:54.041Z,1.7
2023-04-08T11:56:14.917Z,1.55
2023-04-08T11:57:33.122Z,2.09
2023-04-08T11:58:51.542Z,2.28
2023-04-08T12:00:10.200Z,1.87
2023-04-08T12:01:28.198Z,1.87
2023-04-08T12:02:47.032Z,2.1
2023-04-08T12:04:05.680Z,1.25
2023-04-08T12:05:25.663Z,0.85
2023-04-08T12:06:43.371Z,1.07
2023-04-08T12:08:04.024Z,1.83
2023-04-08T12:09:23.697Z,0.9
2023-04-08T12:10:42.165Z,0.97
2023-04-08T12:12:00.703Z,1.35
2023-04-08T12:13:19.261Z,1.2
2023-04-08T12:14:38.229Z,0.83
2023-04-08T12:15:57.370Z,0.76
2023-04-08T12:17:15.841Z,0.76
2023-04-08T12:18:33.307Z,0.65
2023-04-08T12:19:51.308Z,1.01
2023-04-08T12:21:11.524Z,0.88
2023-04-08T12:22:29.414Z,1.49
2023-04-08T12:23:47.479Z,1.19
2023-04-08T12:25:06.478Z,1.56
2023-04-08T12:26:26.028Z,0.52
2023-04-08T12:27:43.311Z,0.56
2023-04-08T12:29:02.561Z,0.45
2023-04-08T12:30:21.956Z,1.29
2023-04-08T12:31:43.270Z,0.94
2023-04-08T12:33:04.629Z,0.78
2023-04-08T12:34:23.416Z,1.1
2023-04-08T12:35:41.675Z,0.85
2023-04-08T12:37:00.045Z,0.62
2023-04-08T12:38:17.367Z,1.71
2023-04-08T12:39:36.562Z,1.32
2023-04-08T12:40:55.705Z,1.06
2023-04-08T12:42:14.089Z,0.4
2023-04-08T12:43:32.103Z,0.59
2023-04-08T12:44:51.640Z,0.82
2023-04-08T12:46:09.434Z,1.53
2023-04-08T12:47:29.468Z,0.99
2023-04-08T12:48:49.353Z,0.91
2023-04-08T12:50:06.761Z,0.82
2023-04-08T12:51:25.202Z,0.99
2023-04-08T12:52:45.155Z,0.34
2023-04-08T12:54:03.656Z,1.18
2023-04-08T12:55:21.468Z,1.15
2023-04-08T12:56:40.803Z,1.73
2023-04-08T12:57:58.062Z,2.41
2023-04-08T12:59:16.222Z,1.65
2023-04-08T13:00:33.748Z,2.41
2023-04-08T13:01:51.928Z,0.57
2023-04-08T13:03:11.343Z,2.23
2023-04-08T13:04:30.563Z,0.74
2023-04-08T13:05:48.152Z,0.98
2023-04-08T13:07:05.151Z,0.94
2023-04-08T13:08:24.101Z,0.41
2023-04-08T13:09:41.139Z,0.61
2023-04-08T13:10:58.885Z,0.62
2023-04-08T13:12:17.961Z,0.92
2023-04-08T13:13:35.682Z,0.58
2023-04-08T13:14:53.831Z,2.01
2023-04-08T13:16:12.368Z,1.08
2023-04-08T13:17:32.023Z,1.28
2023-04-08T13:18:50.256Z,1.78
2023-04-08T13:20:07.578Z,1.16
2023-04-08T13:21:25.255Z,2.18
2023-04-08T13:22:45.443Z,2.19
2023-04-08T13:24:04.996Z,1
2023-04-08T13:25:23.246Z,0.33
2023-04-08T13:26:41.222Z,1.32
2023-04-08T13:27:59.911Z,1.06
2023-04-08T13:29:19.057Z,1.39
2023-04-08T13:30:37.089Z,0.67
2023-04-08T13:31:54.305Z,0.26
2023-04-08T13:33:12.226Z,0.5
2023-04-08T13:34:29.270Z,1.06
2023-04-08T13:35:47.539Z,1.38
2023-04-08T13:37:06.087Z,2.07
2023-04-08T13:38:24.409Z,1.67
2023-04-08T13:39:43.323Z,1.23
2023-04-08T13:41:00.479Z,0.57
2023-04-08T13:42:19.574Z,0.25
2023-04-08T13:43:37.726Z,0.63
2023-04-08T13:44:56.413Z,0.31
2023-04-08T13:46:15.070Z,0.44
2023-04-08T13:47:35.342Z,0.41
2023-04-08T13:48:52.686Z,0.15
2023-04-08T13:50:11.823Z,0.58
2023-04-08T13:51:30.285Z,0.31
2023-04-08T13:52:47.965Z,0.31
2023-04-08T13:54:05.413Z,0.31
2023-04-08T13:55:23.387Z,0.41
2023-04-08T13:56:41.231Z,0.46
2023-04-08T13:57:59.347Z,0.46
2023-04-08T13:59:17.248Z,0.8
2023-04-08T14:00:34.849Z,0.71
2023-04-08T14:01:53.428Z,0.5
2023-04-08T14:03:10.900Z,0.61
2023-04-08T14:04:29.353Z,0.85
2023-04-08T14:05:47.310Z,0.86
2023-04-08T14:07:04.570Z,1.08
2023-04-08T14:08:23.314Z,0.82
2023-04-08T14:09:41.917Z,0.71
2023-04-08T14:10:59.447Z,0.84
2023-04-08T14:12:17.243Z,0.44
2023-04-08T14:13:34.237Z,0.46
2023-04-08T14:14:51.637Z,0.49
2023-04-08T14:16:09.746Z,0.43
2023-04-08T14:17:27.772Z,0.26
2023-04-08T14:18:45.245Z,0.27
2023-04-08T14:20:03.458Z,0.57
2023-04-08T14:21:21.687Z,0.76
2023-04-08T14:22:39.210Z,0.53
2023-04-08T14:23:57.565Z,0.54
2023-04-08T14:25:16.214Z,0.27
2023-04-08T14:26:33.483Z,0.61
2023-04-08T14:27:58.272Z,0.22
2023-04-08T14:29:11.331Z,0.12
2023-04-08T14:30:28.338Z,0.58
2023-04-08T14:31:45.324Z,0.23
2023-04-08T14:33:02.963Z,0.25
2023-04-08T14:34:20.790Z,0.46
2023-04-08T14:35:38.239Z,0.24
2023-04-08T14:36:57.259Z,0.68
2023-04-08T14:38:15.183Z,0.78
2023-04-08T14:39:33.910Z,0.58
2023-04-08T14:40:51.938Z,0.33
2023-04-08T14:42:11.564Z,0.64
2023-04-08T14:43:29.320Z,1.22
2023-04-08T14:44:47.544Z,1.16
2023-04-08T14:46:06.494Z,0.6
2023-04-08T14:47:25.993Z,0.4
2023-04-08T14:48:44.951Z,0.57
2023-04-08T14:50:02.861Z,0.58
2023-04-08T14:51:20.128Z,0.37
2023-04-08T14:52:37.024Z,0.53
2023-04-08T14:53:54.339Z,0.29
2023-04-08T14:55:12.153Z,0.23
2023-04-08T14:56:30.696Z,0.32
2023-04-08T14:57:48.220Z,0.57
2023-04-08T14:59:06.051Z,0.61
2023-04-08T15:00:23.792Z,0.39
2023-04-08T15:01:41.142Z,0.58
2023-04-08T15:02:59.091Z,0.67
2023-04-08T15:04:17.144Z,0.58
2023-04-08T15:05:36.640Z,0.1
2023-04-08T15:06:51.230Z,0.34
2023-04-08T15:08:08.236Z,0.47
2023-04-08T15:09:25.465Z,0.31
2023-04-08T15:10:42.174Z,0.32
2023-04-08T15:11:59.167Z,0.34
2023-04-08T15:13:16.297Z,0.57
2023-04-08T15:14:33.229Z,0.4
2023-04-08T15:15:50.248Z,0.5
2023-04-08T15:17:07.453Z,0.5
2023-04-08T15:18:24.336Z,0.27
2023-04-08T15:19:41.276Z,0.32
2023-04-08T15:21:00.356Z,0.29
2023-04-08T15:22:17.063Z,0.23
2023-04-08T15:23:34.248Z,0.08
2023-04-08T15:24:52.413Z,0.52
2023-04-08T15:26:09.861Z,0.5
2023-04-08T15:27:28.230Z,0.28
2023-04-08T15:28:45.360Z,0.37
2023-04-08T15:30:03.361Z,0.16
2023-04-08T15:31:22.392Z,0.12
2023-04-08T15:32:40.326Z,0.29
2023-04-08T15:33:57.293Z,0.28
2023-04-08T15:35:14.293Z,0.22
2023-04-08T15:36:31.787Z,1.1
2023-04-08T15:37:49.228Z,0.29
2023-04-08T15:39:06.660Z,0.59
2023-04-08T15:40:25.394Z,0.57
2023-04-08T15:41:42.745Z,0.41
2023-04-08T15:43:00.741Z,0.53
2023-04-08T15:44:18.602Z,0.49
2023-04-08T15:45:36.629Z,0.64
2023-04-08T15:46:55.319Z,0.2
2023-04-08T15:48:12.948Z,0.23
2023-04-08T15:49:31.275Z,0.29
2023-04-08T15:50:48.610Z,0.2
2023-04-08T15:52:06.253Z,0.19
2023-04-08T15:53:24.455Z,0.13
2023-04-08T15:54:43.497Z,0
2023-04-08T15:56:01.365Z,0.17
2023-04-08T15:57:18.445Z,0.24
2023-04-08T15:58:35.478Z,0
2023-04-08T15:59:52.546Z,0
2023-04-08T16:01:10.741Z,0.37
2023-04-08T16:02:29.669Z,0.4
2023-04-08T16:03:48.702Z,0.37
2023-04-08T16:05:05.404Z,0.37
2023-04-08T16:06:22.389Z,0
2023-04-08T16:07:39.312Z,0
2023-04-08T16:08:59.016Z,0
2023-04-08T16:10:18.170Z,0
2023-04-08T16:11:36.490Z,0.27
2023-04-08T16:12:54.721Z,0.26
2023-04-08T16:14:12.407Z,0
2023-04-08T16:15:29.302Z,0
2023-04-08T16:16:46.400Z,0.19
2023-04-08T16:18:03.625Z,0.35
2023-04-08T16:19:21.230Z,0.24
2023-04-08T16:20:38.722Z,0
2023-04-08T16:21:57.404Z,0.16
2023-04-08T16:23:15.531Z,0.14
2023-04-08T16:24:32.433Z,0
2023-04-08T16:25:50.495Z,0
2023-04-08T16:27:07.490Z,0
2023-04-08T16:28:24.662Z,0
2023-04-08T16:29:42.447Z,0.27
2023-04-08T16:30:59.452Z,0
2023-04-08T16:32:16.565Z,0.11
2023-04-08T16:33:34.380Z,0.06
2023-04-08T16:34:51.590Z,0.5
2023-04-08T16:36:10.768Z,0.47
2023-04-08T16:37:30.264Z,0.3
2023-04-08T16:38:50.404Z,0.18
2023-04-08T16:40:08.478Z,0.31
2023-04-08T16:41:25.686Z,0.67
2023-04-08T16:42:43.335Z,0.27
2023-04-08T16:44:00.635Z,0.09
2023-04-08T16:45:18.787Z,0.86
2023-04-08T16:46:37.163Z,0.6
2023-04-08T16:47:54.964Z,0.24
2023-04-08T16:49:14.567Z,0.52
2023-04-08T16:50:31.598Z,0.42
2023-04-08T16:51:50.310Z,0.27
2023-04-08T16:53:09.426Z,0.08
2023-04-08T16:54:27.551Z,0
2023-04-08T16:55:46.608Z,0.39
2023-04-08T16:57:08.121Z,0.25
2023-04-08T16:58:27.565Z,0.18
2023-04-08T16:59:44.792Z,0.13
2023-04-08T17:01:02.204Z,0.09
2023-04-08T17:02:19.533Z,0.21
2023-04-08T17:03:37.431Z,0
2023-04-08T17:04:54.387Z,0
2023-04-08T17:06:11.440Z,0
2023-04-08T17:07:28.263Z,0.35
2023-04-08T17:08:45.347Z,0.23
2023-04-08T17:10:02.322Z,0.51
2023-04-08T17:11:20.488Z,0.44
2023-04-08T17:12:37.230Z,0.28
2023-04-08T17:13:54.333Z,0.52
2023-04-08T17:15:11.230Z,1.02
2023-04-08T17:16:29.029Z,0.38